sensor_id;sensor_type;location;lat;lon;timestamp;P1;durP1;ratioP1;P2;durP2;ratioP2
57535;SDS011;43361;49.790;8.960;2022-12-29T00:09:28;5.53;;;2.00;;
57535;SDS011;43361;49.790;8.960;2022-12-29T00:19:30;5.28;;;1.40;;
57535;SDS011;43361;49.790;8.960;2022-12-29T00:29:49;5.10;;;1.42;;
57535;SDS011;43361;49.790;8.960;2022-12-29T00:40:10;3.47;;;1.35;;
57535;SDS011;43361;49.790;8.960;2022-12-29T01:00:31;2.90;;;1.23;;
57535;SDS011;43361;49.790;8.960;2022-12-29T01:10:31;3.38;;;1.30;;
57535;SDS011;43361;49.790;8.960;2022-12-29T01:20:33;3.22;;;1.35;;
57535;SDS011;43361;49.790;8.960;2022-12-29T01:30:33;2.33;;;1.10;;
57535;SDS011;43361;49.790;8.960;2022-12-29T01:40:35;2.63;;;1.10;;
57535;SDS011;43361;49.790;8.960;2022-12-29T01:50:43;3.53;;;0.95;;
57535;SDS011;43361;49.790;8.960;2022-12-29T02:00:47;2.28;;;1.30;;
57535;SDS011;43361;49.790;8.960;2022-12-29T02:10:47;3.15;;;1.05;;
57535;SDS011;43361;49.790;8.960;2022-12-29T02:20:58;2.67;;;0.95;;
57535;SDS011;43361;49.790;8.960;2022-12-29T02:31:06;1.55;;;0.88;;
57535;SDS011;43361;49.790;8.960;2022-12-29T02:41:08;2.17;;;0.88;;
57535;SDS011;43361;49.790;8.960;2022-12-29T02:51:12;2.55;;;0.93;;
57535;SDS011;43361;49.790;8.960;2022-12-29T03:11:37;2.47;;;0.80;;
57535;SDS011;43361;49.790;8.960;2022-12-29T03:22:00;2.88;;;0.88;;
57535;SDS011;43361;49.790;8.960;2022-12-29T03:32:22;1.10;;;0.60;;
57535;SDS011;43361;49.790;8.960;2022-12-29T03:42:24;2.53;;;1.15;;
57535;SDS011;43361;49.790;8.960;2022-12-29T03:52:27;2.38;;;1.00;;
57535;SDS011;43361;49.790;8.960;2022-12-29T04:02:27;2.00;;;0.77;;
57535;SDS011;43361;49.790;8.960;2022-12-29T04:12:29;1.67;;;0.70;;
57535;SDS011;43361;49.790;8.960;2022-12-29T04:22:30;1.88;;;0.77;;
57535;SDS011;43361;49.790;8.960;2022-12-29T04:32:31;1.95;;;0.80;;
57535;SDS011;43361;49.790;8.960;2022-12-29T04:42:32;3.35;;;0.60;;
57535;SDS011;43361;49.790;8.960;2022-12-29T04:52:33;1.98;;;0.68;;
57535;SDS011;43361;49.790;8.960;2022-12-29T05:02:34;1.17;;;0.50;;
57535;SDS011;43361;49.790;8.960;2022-12-29T05:12:36;1.10;;;0.57;;
57535;SDS011;43361;49.790;8.960;2022-12-29T05:22:37;1.17;;;0.50;;
57535;SDS011;43361;49.790;8.960;2022-12-29T05:32:38;1.45;;;0.50;;
57535;SDS011;43361;49.790;8.960;2022-12-29T05:42:39;0.80;;;0.60;;
57535;SDS011;43361;49.790;8.960;2022-12-29T05:52:41;1.65;;;0.70;;
57535;SDS011;43361;49.790;8.960;2022-12-29T06:02:41;2.00;;;0.60;;
57535;SDS011;43361;49.790;8.960;2022-12-29T06:12:43;1.73;;;0.60;;
57535;SDS011;43361;49.790;8.960;2022-12-29T06:22:43;1.83;;;0.60;;
57535;SDS011;43361;49.790;8.960;2022-12-29T06:32:45;1.20;;;0.60;;
57535;SDS011;43361;49.790;8.960;2022-12-29T06:42:46;1.33;;;0.50;;
57535;SDS011;43361;49.790;8.960;2022-12-29T06:52:47;4.03;;;0.68;;
57535;SDS011;43361;49.790;8.960;2022-12-29T07:02:48;2.67;;;0.50;;
57535;SDS011;43361;49.790;8.960;2022-12-29T07:12:49;3.22;;;0.85;;
57535;SDS011;43361;49.790;8.960;2022-12-29T07:22:50;3.35;;;0.85;;
57535;SDS011;43361;49.790;8.960;2022-12-29T07:32:52;3.90;;;1.20;;
57535;SDS011;43361;49.790;8.960;2022-12-29T07:42:52;10.55;;;1.67;;
57535;SDS011;43361;49.790;8.960;2022-12-29T07:52:54;13.90;;;2.38;;
57535;SDS011;43361;49.790;8.960;2022-12-29T08:02:54;11.93;;;2.55;;
57535;SDS011;43361;49.790;8.960;2022-12-29T08:12:56;11.15;;;2.60;;
57535;SDS011;43361;49.790;8.960;2022-12-29T08:22:57;16.25;;;2.40;;
57535;SDS011;43361;49.790;8.960;2022-12-29T08:32:59;18.02;;;3.13;;
57535;SDS011;43361;49.790;8.960;2022-12-29T08:42:59;15.75;;;3.58;;
57535;SDS011;43361;49.790;8.960;2022-12-29T08:53:01;16.13;;;3.45;;
57535;SDS011;43361;49.790;8.960;2022-12-29T09:03:02;13.80;;;2.85;;
57535;SDS011;43361;49.790;8.960;2022-12-29T09:13:03;10.25;;;2.75;;
57535;SDS011;43361;49.790;8.960;2022-12-29T09:23:04;13.57;;;3.17;;
57535;SDS011;43361;49.790;8.960;2022-12-29T09:33:07;13.88;;;3.03;;
57535;SDS011;43361;49.790;8.960;2022-12-29T09:43:14;10.65;;;3.15;;
57535;SDS011;43361;49.790;8.960;2022-12-29T09:53:20;9.07;;;2.73;;
57535;SDS011;43361;49.790;8.960;2022-12-29T10:03:22;14.10;;;3.03;;
57535;SDS011;43361;49.790;8.960;2022-12-29T10:13:35;10.27;;;2.53;;
57535;SDS011;43361;49.790;8.960;2022-12-29T10:23:39;8.25;;;2.63;;
57535;SDS011;43361;49.790;8.960;2022-12-29T10:33:42;10.35;;;3.53;;
57535;SDS011;43361;49.790;8.960;2022-12-29T10:43:43;9.07;;;2.92;;
57535;SDS011;43361;49.790;8.960;2022-12-29T10:53:47;7.07;;;2.22;;
57535;SDS011;43361;49.790;8.960;2022-12-29T11:03:50;6.75;;;2.20;;
57535;SDS011;43361;49.790;8.960;2022-12-29T11:13:57;6.32;;;2.38;;
57535;SDS011;43361;49.790;8.960;2022-12-29T11:23:59;6.20;;;2.30;;
57535;SDS011;43361;49.790;8.960;2022-12-29T11:34:01;10.63;;;2.53;;
57535;SDS011;43361;49.790;8.960;2022-12-29T11:44:05;9.60;;;2.38;;
57535;SDS011;43361;49.790;8.960;2022-12-29T11:54:09;14.10;;;3.78;;
57535;SDS011;43361;49.790;8.960;2022-12-29T12:04:15;18.10;;;3.58;;
57535;SDS011;43361;49.790;8.960;2022-12-29T12:14:18;11.55;;;3.60;;
57535;SDS011;43361;49.790;8.960;2022-12-29T12:24:32;12.55;;;2.45;;
57535;SDS011;43361;49.790;8.960;2022-12-29T12:34:37;14.48;;;2.95;;
57535;SDS011;43361;49.790;8.960;2022-12-29T12:44:41;12.50;;;2.63;;
57535;SDS011;43361;49.790;8.960;2022-12-29T12:54:49;7.25;;;2.13;;
57535;SDS011;43361;49.790;8.960;2022-12-29T13:05:01;8.32;;;2.63;;
57535;SDS011;43361;49.790;8.960;2022-12-29T13:15:10;7.20;;;2.03;;
57535;SDS011;43361;49.790;8.960;2022-12-29T13:25:16;12.32;;;2.03;;
57535;SDS011;43361;49.790;8.960;2022-12-29T13:35:25;4.60;;;1.83;;
57535;SDS011;43361;49.790;8.960;2022-12-29T13:45:29;5.97;;;2.58;;
57535;SDS011;43361;49.790;8.960;2022-12-29T13:55:32;8.60;;;2.33;;
57535;SDS011;43361;49.790;8.960;2022-12-29T14:05:34;7.63;;;2.03;;
57535;SDS011;43361;49.790;8.960;2022-12-29T14:15:36;6.40;;;2.10;;
57535;SDS011;43361;49.790;8.960;2022-12-29T14:26:00;6.50;;;2.10;;
57535;SDS011;43361;49.790;8.960;2022-12-29T14:36:20;6.50;;;1.83;;
57535;SDS011;43361;49.790;8.960;2022-12-29T14:46:23;10.80;;;1.73;;
57535;SDS011;43361;49.790;8.960;2022-12-29T14:56:26;7.95;;;1.67;;
57535;SDS011;43361;49.790;8.960;2022-12-29T15:06:29;12.13;;;2.22;;
57535;SDS011;43361;49.790;8.960;2022-12-29T15:16:32;4.63;;;1.52;;
57535;SDS011;43361;49.790;8.960;2022-12-29T15:26:36;5.57;;;1.83;;
57535;SDS011;43361;49.790;8.960;2022-12-29T15:36:39;17.45;;;2.72;;
57535;SDS011;43361;49.790;8.960;2022-12-29T15:46:40;19.17;;;2.00;;
57535;SDS011;43361;49.790;8.960;2022-12-29T15:56:42;15.50;;;2.28;;
57535;SDS011;43361;49.790;8.960;2022-12-29T16:06:44;21.90;;;3.10;;
57535;SDS011;43361;49.790;8.960;2022-12-29T16:16:46;20.00;;;3.30;;
57535;SDS011;43361;49.790;8.960;2022-12-29T16:26:48;7.22;;;2.45;;
57535;SDS011;43361;49.790;8.960;2022-12-29T16:36:54;12.52;;;2.03;;
57535;SDS011;43361;49.790;8.960;2022-12-29T16:57:14;16.05;;;1.88;;
57535;SDS011;43361;49.790;8.960;2022-12-29T17:07:15;11.48;;;2.53;;
57535;SDS011;43361;49.790;8.960;2022-12-29T17:17:18;12.48;;;1.80;;
57535;SDS011;43361;49.790;8.960;2022-12-29T17:27:24;8.18;;;1.95;;
57535;SDS011;43361;49.790;8.960;2022-12-29T17:37:33;18.65;;;2.25;;
57535;SDS011;43361;49.790;8.960;2022-12-29T17:47:34;13.37;;;1.97;;
57535;SDS011;43361;49.790;8.960;2022-12-29T18:07:36;7.47;;;2.10;;
57535;SDS011;43361;49.790;8.960;2022-12-29T18:17:36;11.48;;;2.40;;
57535;SDS011;43361;49.790;8.960;2022-12-29T18:27:38;8.50;;;1.73;;
57535;SDS011;43361;49.790;8.960;2022-12-29T18:37:38;11.05;;;1.92;;
57535;SDS011;43361;49.790;8.960;2022-12-29T18:47:40;8.25;;;2.17;;
57535;SDS011;43361;49.790;8.960;2022-12-29T18:57:40;7.63;;;2.00;;
57535;SDS011;43361;49.790;8.960;2022-12-29T19:07:42;8.32;;;2.10;;
57535;SDS011;43361;49.790;8.960;2022-12-29T19:17:43;6.00;;;2.08;;
57535;SDS011;43361;49.790;8.960;2022-12-29T19:27:45;9.68;;;2.20;;
57535;SDS011;43361;49.790;8.960;2022-12-29T19:37:45;6.53;;;1.70;;
57535;SDS011;43361;49.790;8.960;2022-12-29T19:47:47;8.13;;;1.92;;
57535;SDS011;43361;49.790;8.960;2022-12-29T19:57:47;9.88;;;1.85;;
57535;SDS011;43361;49.790;8.960;2022-12-29T20:07:49;10.10;;;1.70;;
57535;SDS011;43361;49.790;8.960;2022-12-29T20:17:50;6.95;;;1.58;;
57535;SDS011;43361;49.790;8.960;2022-12-29T20:27:51;8.45;;;1.95;;
57535;SDS011;43361;49.790;8.960;2022-12-29T20:37:53;4.35;;;1.30;;
57535;SDS011;43361;49.790;8.960;2022-12-29T20:47:55;4.53;;;1.77;;
57535;SDS011;43361;49.790;8.960;2022-12-29T20:57:55;8.15;;;1.65;;
57535;SDS011;43361;49.790;8.960;2022-12-29T21:07:57;6.82;;;2.22;;
57535;SDS011;43361;49.790;8.960;2022-12-29T21:17:58;4.85;;;1.52;;
57535;SDS011;43361;49.790;8.960;2022-12-29T21:28:00;6.22;;;1.50;;
57535;SDS011;43361;49.790;8.960;2022-12-29T21:38:00;4.43;;;1.70;;
57535;SDS011;43361;49.790;8.960;2022-12-29T21:48:03;4.78;;;1.65;;
57535;SDS011;43361;49.790;8.960;2022-12-29T21:58:22;2.95;;;1.00;;
57535;SDS011;43361;49.790;8.960;2022-12-29T22:08:42;4.43;;;1.30;;
57535;SDS011;43361;49.790;8.960;2022-12-29T22:19:01;3.22;;;1.00;;
57535;SDS011;43361;49.790;8.960;2022-12-29T22:29:03;3.25;;;1.10;;
57535;SDS011;43361;49.790;8.960;2022-12-29T22:39:03;3.03;;;1.27;;
57535;SDS011;43361;49.790;8.960;2022-12-29T22:49:05;3.72;;;1.30;;
57535;SDS011;43361;49.790;8.960;2022-12-29T22:59:06;3.17;;;1.20;;
57535;SDS011;43361;49.790;8.960;2022-12-29T23:09:08;3.13;;;1.40;;
57535;SDS011;43361;49.790;8.960;2022-12-29T23:19:09;6.43;;;1.58;;
57535;SDS011;43361;49.790;8.960;2022-12-29T23:29:12;3.13;;;1.08;;
57535;SDS011;43361;49.790;8.960;2022-12-29T23:39:15;3.63;;;1.30;;
57535;SDS011;43361;49.790;8.960;2022-12-29T23:49:18;3.58;;;1.10;;
57535;SDS011;43361;49.790;8.960;2022-12-29T23:59:18;4.28;;;1.10;;
